Tiempo atmosférico en la estación meteorológica de Jabaloyas, Teruel (1430 m.)



Fecha
DESCASC
Temp. máxima en grados centígrados (hora)
DESCASC
Temp. mínima en grados centígrados (hora)
DESCASC
Temp. media en grados centígrados
DESCASC
Racha de viento máxima en m/sg (hora)
DESCASC
Velocidad máxima media en intervalos de 10 minutos(hora)
DESCASC
Precipitaciones diarias en mm
DESCASC
Precipitaciones de 00:00 a 06:00 en mm
DESCASC
Precipitaciones de 06:00 a 12:00 en mm
DESCASC
Precipitaciones de 12:00 a 18:00 en mm
DESCASC
Precipitaciones de 18:00 a 24:00 en mm
DESCASC
10-07-2020 26.3 (16:20) 13.2 (00:40) 19.7 10.83 (17:30) 6.39 (17:40) 0 0 0 0 0
09-07-2020 24.5 (17:10) 14 (21:40) 19.3 14.72 (20:40) 9.17 (20:50) 2.2 0 0.2 1 1
08-07-2020 28.5 (15:00) 16.3 (22:50) 22.4 18.33 (17:20) 10 (17:20) 9 0 0 6.2 2.8
07-07-2020 31.5 (17:20) 16.2 (05:40) 23.9 9.44 (18:50) 6.11 (12:50) 0 0 0 0 0
06-07-2020 28.7 (15:30) 16.9 (00:00) 22.8 7.78 (13:50) 4.72 (20:40) 0 0 0 0 0
05-07-2020 29.1 (17:00) 14.5 (05:30) 21.8 8.06 (13:10) 4.44 (13:10) 0 0 0 0 0
04-07-2020 27.5 (17:00) 13.9 (07:00) 20.7 7.78 (18:10) 4.72 (19:40) 0 0 0 0 0
03-07-2020 25.3 (18:40) 11 (03:50) 18.1 6.67 (15:10) 3.89 (15:00) 0 0 0 0 0
02-07-2020 27.1 (16:40) 17.1 (00:00) 22.1 11.11 (16:30) 5.83 (19:20) 0 0 0 0 0
01-07-2020 28.5 (18:00) 18 (00:00) 23.3 11.67 (16:20) 6.94 (12:30) 0 0 0 0 0
30-06-2020 28.6 (16:50) 17.2 (00:00) 22.9 13.61 (16:20) 7.22 (14:40) 0 0 0 0 0
29-06-2020 29.8 (17:40) 17.7 (00:00) 23.8 10.56 (12:40) 7.5 (04:10) 0 0 0 0 0
28-06-2020 28 (17:00) 14.6 (00:00) 21.3 10 (13:20) 5.56 (03:10) 0 0 0 0 0
27-06-2020 26.2 (18:40) 13.2 (00:00) 19.7 8.33 (04:00) 5.28 (04:00) 0 0 0 0 0
26-06-2020 25.4 (16:30) 14 (00:00) 19.7 12.78 (16:00) 7.22 (00:40) 0 0 0 0 0
25-06-2020 26.9 (15:10) 15.4 (00:00) 21.1 14.17 (17:30) 8.06 (16:50) 0 0 0 0 0
24-06-2020 26.4 (17:00) 14.8 (00:00) 20.6 10.28 (15:50) 6.39 (01:30) 0 0 0 0 0
23-06-2020 27.9 (16:30) 15.6 (00:00) 21.8 9.72 (18:10) 5.83 (20:40) 0 0 0 0 0
22-06-2020 26.3 (17:00) 12.7 (00:00) 19.5 8.61 (14:30) 5.28 (16:20) 0 0 0 0 0
21-06-2020 26.6 (16:20) 15.1 (00:00) 20.9 11.67 (16:20) 5 (11:20) 0 0 0 0 0
20-06-2020 25.5 (16:50) 12.7 (00:00) 19.1 11.11 (11:50) 6.11 (11:50) 0 0 0 0 0
19-06-2020 23 (19:40) 11.7 (00:00) 17.3 9.17 (06:00) 6.11 (05:50) 0.2 0.2 0 0 0
18-06-2020 21.5 (17:40) 10.5 (03:10) 16 12.78 (23:00) 6.67 (23:00) 0 0 0 0 0
17-06-2020 19.4 (17:50) 8.2 (00:00) 13.8 8.61 (14:00) 5 (22:40) 0 0 0 0 0
16-06-2020 18.6 (18:00) 10 (00:00) 14.3 10.28 (17:50) 5.28 (17:30) 0 0 0 0 0
15-06-2020 22.1 (17:20) 10 (00:00) 16.1 10 (12:40) 5 (18:00) 0 0 0 0 0
14-06-2020 19.8 (18:10) 9.6 (00:00) 14.7 10.56 (13:00) 5.28 (14:30) 0 0 0 0 0
13-06-2020 17.4 (17:00) 5.3 (00:00) 11.3 11.39 (02:00) 7.22 (02:20) 0 0 0 0 0
12-06-2020 14.7 (17:00) 6.6 (00:00) 10.6 12.78 (06:00) 7.22 (07:50) 0.2 0.2 0 0 0
11-06-2020 19 (16:50) 9.4 (00:00) 14.2 15 (11:00) 6.39 (15:40) 0 0 0 0 0

Gráficas

Temp. máximas Temp. mínimas Temp. medias Precipitaciones Rachas de viento máximas Velocidades máximas media en intervalos de 10 minutos

Datos horarios

Fecha y hora oficial Temperatura (ºC) Velocidad del viento (km/h) Dirección del viento Racha (km/h) Dirección de racha Precipitación (mm) Presión (hPa) Tendencia (hPa) Humedad (%)
2020-07-10 23:00:00 17.8 9 Sur 13 Sudeste 0 -- -- 72
2020-07-10 22:00:00 18.8 10 Sudeste 17 Sudeste 0 -- -- 68
2020-07-10 21:00:00 20.6 11 Sudeste 20 Sudeste 0 -- -- 61
2020-07-10 20:00:00 22 10 Sur 19 Sur 0 -- -- 55
2020-07-10 19:00:00 22.2 7 Sudeste 26 Sudeste 0 -- -- 53
2020-07-10 18:00:00 22.5 14 Sudeste 39 Sudeste 0 -- -- 51
2020-07-10 17:00:00 25.3 16 Sudeste 28 Sudeste 0 -- -- 39
2020-07-10 16:00:00 24.7 9 Sudeste 23 Este 0 -- -- 34
2020-07-10 15:00:00 25.5 9 Sudeste 24 Sudeste 0 -- -- 35
2020-07-10 14:00:00 25.1 8 Sudeste 19 Sudeste 0 -- -- 35
2020-07-10 13:00:00 23.9 8 Sur 18 Este 0 -- -- 43
2020-07-10 12:00:00 22.8 6 Sudeste 14 Este 0 -- -- 50
2020-07-10 11:00:00 20.9 4 Este 10 Este 0 -- -- 51
2020-07-10 10:00:00 18.9 4 Noroeste 10 Noroeste 0 -- -- 60
2020-07-10 09:00:00 17.6 3 Norte 8 Noroeste 0 -- -- 66
2020-07-10 08:00:00 15.7 6 Noroeste 10 Noroeste 0 -- -- 71
2020-07-10 07:00:00 13.8 9 Oeste 11 Oeste 0 -- -- 75
2020-07-10 06:00:00 14 4 Noroeste 7 Oeste 0 -- -- 72
2020-07-10 05:00:00 14.6 0 Calma 4 Sur 0 -- -- 69
2020-07-10 04:00:00 14.3 0 Calma 5 Sudoeste 0 -- -- 72
2020-07-10 03:00:00 14.2 0 Calma 10 Sudeste 0 -- -- 74
2020-07-10 02:00:00 14.9 6 Sudeste 10 Sudeste 0 -- -- 68
2020-07-10 01:00:00 13.3 5 Oeste 9 Sudoeste 0 -- -- 79
2020-07-10 00:00:00 14.5 0 Calma 17 Sudeste 0 -- -- 66
2020-07-09 23:00:00 17.2 9 Sudoeste 42 Sudoeste 0 -- -- 50
2020-07-09 22:00:00 14.3 24 Sudoeste 49 Oeste 0.6 -- -- 72
2020-07-09 21:00:00 14.4 29 Oeste 53 Oeste 0.4 -- -- 77
2020-07-09 20:00:00 21.2 13 Sudeste 31 Sur 0 -- -- 59
2020-07-09 19:00:00 22.9 15 Sudeste 36 Este 0 -- -- 48
2020-07-09 18:00:00 23.4 17 Sudeste 27 Sur 0 -- -- 46
2020-07-09 17:00:00 24.2 5 Nordeste 16 Nordeste 0.2 -- -- 44
2020-07-09 16:00:00 23.3 8 Norte 14 Nordeste 0.2 -- -- 49
2020-07-09 15:00:00 22.8 9 Sudeste 16 Este 0.2 -- -- 52
2020-07-09 14:00:00 23.1 6 Norte 13 Nordeste 0.2 -- -- 52
2020-07-09 13:00:00 22.6 3 Sudeste 14 Este 0.2 -- -- 47
2020-07-09 12:00:00 21.9 9 Este 15 Este 0 -- -- 50
2020-07-09 11:00:00 21.3 4 Norte 13 Sudoeste 0 -- -- 49
2020-07-09 10:00:00 18.4 9 Oeste 14 Oeste 0.2 -- -- 64
2020-07-09 09:00:00 20.1 0 Calma 8 Sudeste 0 -- -- 48
2020-07-09 08:00:00 17.1 5 Sur 8 Sudeste 0 -- -- 56
2020-07-09 07:00:00 16 3 Oeste 9 Norte 0 -- -- 61
2020-07-09 06:00:00 16.5 5 Oeste 12 Este 0 -- -- 58
2020-07-09 05:00:00 17.6 3 Sudoeste 13 Oeste 0 -- -- 52
2020-07-09 04:00:00 18.2 4 Noroeste 10 Sur 0 -- -- 52
2020-07-09 03:00:00 18.6 2 Sur 10 Oeste 0 -- -- 46
2020-07-09 02:00:00 18.3 10 Oeste 21 Oeste 0 -- -- 51
2020-07-09 01:00:00 17.8 14 Oeste 36 Oeste 0 -- -- 53
2020-07-09 00:00:00 18.3 27 Oeste 44 Oeste 0.6 -- -- 55
2020-07-08 23:00:00 16.5 12 Oeste 23 Oeste 0.6 -- -- 71
2020-07-08 22:00:00 17 6 Oeste 31 Oeste 0.4 -- -- 66
2020-07-08 21:00:00 16.8 3 Sudoeste 30 Sudoeste 1 -- -- 67
2020-07-08 20:00:00 19.5 10 Sur 36 Sur 0 -- -- 54
2020-07-08 19:00:00 18.1 16 Sur 45 Sur 0.2 -- -- 58
2020-07-08 18:00:00 18.4 26 Sur 66 Oeste 6.2 -- -- 57
2020-07-08 17:00:00 26.2 14 Sudeste 29 Sudeste 0 -- -- 44
2020-07-08 16:00:00 27.7 11 Sudeste 18 Sudeste 0 -- -- 33
2020-07-08 15:00:00 28.5 9 Sudeste 18 Este 0 -- -- 32
2020-07-08 14:00:00 26.6 6 Nordeste 18 Nordeste 0 -- -- 40
2020-07-08 13:00:00 23.3 5 Este 35 Sudeste 0 -- -- 51
2020-07-08 12:00:00 24.9 5 Norte 41 Oeste 0 -- -- 41
2020-07-08 11:00:00 23.6 23 Oeste 44 Oeste 0 -- -- 43
2020-07-08 10:00:00 21.5 2 Este 22 Sudeste 0 -- -- 53
2020-07-08 09:00:00 20 9 Sudeste 37 Oeste 0 -- -- 56
2020-07-08 08:00:00 20.3 8 Sudoeste 38 Sur 0 -- -- 54
2020-07-08 07:00:00 18.8 24 Sur 39 Sudeste 0 -- -- 54
2020-07-08 06:00:00 19.3 26 Sur 39 Sur 0 -- -- 50
2020-07-08 05:00:00 19.3 25 Sur 39 Sur 0 -- -- 53
2020-07-08 04:00:00 19.5 22 Sur 37 Sur 0 -- -- 57
2020-07-08 03:00:00 19.1 23 Sur 35 Sudeste 0 -- -- 66
2020-07-08 02:00:00 19.3 23 Sudeste 35 Sur 0 -- -- 68
2020-07-08 01:00:00 20 15 Sur 24 Sur 0 -- -- 67
2020-07-08 00:00:00 20.7 16 Sur 22 Sur 0 -- -- 67
2020-07-07 23:00:00 21.6 3 Sudeste 10 Sudeste 0 -- -- 60
2020-07-07 22:00:00 23.6 8 Sudeste 13 Este 0 -- -- 55
2020-07-07 21:00:00 27.8 6 Norte 26 Oeste 0 -- -- 41
2020-07-07 20:00:00 30.1 6 Oeste 28 Noroeste 0 -- -- 26
2020-07-07 19:00:00 30.3 14 Noroeste 34 Noroeste 0 -- -- 24
2020-07-07 18:00:00 30.3 16 Noroeste 32 Oeste 0 -- -- 27
2020-07-07 17:00:00 30.7 13 Noroeste 31 Oeste 0 -- -- 26
2020-07-07 16:00:00 29.6 6 Norte 23 Noroeste 0 -- -- 28
2020-07-07 15:00:00 30.2 15 Norte 32 Noroeste 0 -- -- 27
2020-07-07 14:00:00 29 17 Noroeste 33 Noroeste 0 -- -- 27
2020-07-07 13:00:00 28.2 19 Noroeste 33 Noroeste 0 -- -- 29
2020-07-07 12:00:00 27 15 Noroeste 24 Noroeste 0 -- -- 33
2020-07-07 11:00:00 25.3 5 Sudoeste 18 Oeste 0 -- -- 40
2020-07-07 10:00:00 24.1 10 Oeste 18 Oeste 0 -- -- 44
2020-07-07 09:00:00 22.7 8 Sudoeste 19 Sudoeste 0 -- -- 50
2020-07-07 08:00:00 21 8 Sudoeste 18 Sudoeste 0 -- -- 54
2020-07-07 07:00:00 19.5 5 Sudoeste 14 Sur 0 -- -- 58
2020-07-07 06:00:00 16.8 2 Sur 8 Sur 0 -- -- 66
2020-07-07 05:00:00 16.3 0 Calma 6 Sudeste 0 -- -- 66
2020-07-07 04:00:00 16.6 0 Calma 4 Oeste 0 -- -- 65
2020-07-07 03:00:00 16.9 0 Calma 5 Sudoeste 0 -- -- 65
2020-07-07 02:00:00 16.5 4 Oeste 8 Sudoeste 0 -- -- 66
2020-07-07 01:00:00 17 4 Oeste 11 Noroeste 0 -- -- 62
2020-07-07 00:00:00 18.4 8 Noroeste 17 Oeste 0 -- -- 60
2020-07-06 23:00:00 19.5 14 Oeste 19 Oeste 0 -- -- 57
2020-07-06 22:00:00 20.5 14 Noroeste 22 Noroeste 0 -- -- 55
2020-07-06 21:00:00 23.6 15 Norte 26 Norte 0 -- -- 48
2020-07-06 20:00:00 26 13 Norte 26 Noroeste 0 -- -- 43
2020-07-06 19:00:00 27.1 16 Norte 27 Norte 0 -- -- 41
2020-07-06 18:00:00 26.7 12 Norte 21 Norte 0 -- -- 39
2020-07-06 17:00:00 28.2 6 Este 21 Este 0 -- -- 37
2020-07-06 16:00:00 27.5 14 Nordeste 25 Noroeste 0 -- -- 37
2020-07-06 15:00:00 28 11 Norte 22 Este 0 -- -- 34
2020-07-06 14:00:00 28.2 8 Nordeste 28 Este 0 -- -- 34
2020-07-06 13:00:00 27.4 16 Sudeste 27 Este 0 -- -- 37
2020-07-06 12:00:00 26.3 6 Nordeste 15 Nordeste 0 -- -- 37
2020-07-06 11:00:00 24.6 6 Nordeste 13 Nordeste 0 -- -- 43
2020-07-06 10:00:00 22.4 7 Norte 15 Norte 0 -- -- 48
2020-07-06 09:00:00 20.9 8 Norte 12 Noroeste 0 -- -- 53
2020-07-06 08:00:00 19.7 8 Oeste 13 Oeste 0 -- -- 56
2020-07-06 07:00:00 17.4 9 Oeste 14 Oeste 0 -- -- 62
2020-07-06 06:00:00 16.9 9 Oeste 13 Oeste 0 -- -- 63
2020-07-06 05:00:00 17.2 9 Oeste 13 Oeste 0 -- -- 60
2020-07-06 04:00:00 17.4 9 Oeste 11 Oeste 0 -- -- 58
2020-07-06 03:00:00 18.2 5 Oeste 8 Oeste 0 -- -- 58
2020-07-06 02:00:00 18.9 0 Calma 4 Oeste 0 -- -- 58
2020-07-06 01:00:00 19.5 2 Oeste 6 Oeste 0 -- -- 59
2020-07-06 00:00:00 19.1 4 Oeste 5 Noroeste 0 -- -- 62
2020-07-05 23:00:00 20 0 Calma 9 Sudeste 0 -- -- 59
2020-07-05 22:00:00 20.8 10 Sudeste 13 Este 0 -- -- 58
2020-07-05 21:00:00 23.9 10 Sudeste 18 Sudeste 0 -- -- 49
2020-07-05 20:00:00 26.2 8 Sudeste 22 Sudeste 0 -- -- 43
2020-07-05 19:00:00 27.6 9 Sudeste 20 Sudeste 0 -- -- 38
2020-07-05 18:00:00 28.4 6 Nordeste 21 Sudeste 0 -- -- 27
2020-07-05 17:00:00 29.1 6 Sudoeste 26 Este 0 -- -- 25
2020-07-05 16:00:00 28.3 14 Este 26 Este 0 -- -- 27
2020-07-05 15:00:00 28.4 9 Sudeste 25 Este 0 -- -- 29
2020-07-05 14:00:00 27.2 15 Sudeste 29 Este 0 -- -- 29
2020-07-05 13:00:00 26.8 11 Norte 24 Nordeste 0 -- -- 29
2020-07-05 12:00:00 25.4 9 Sudeste 20 Este 0 -- -- 32
2020-07-05 11:00:00 24.3 7 Este 13 Este 0 -- -- 32
2020-07-05 10:00:00 22.1 4 Este 14 Este 0 -- -- 37
2020-07-05 09:00:00 21 4 Nordeste 7 Este 0 -- -- 35
2020-07-05 08:00:00 18.3 0 Calma 4 Oeste 0 -- -- 41
2020-07-05 07:00:00 15.4 5 Oeste 8 Oeste 0 -- -- 44
2020-07-05 06:00:00 14.9 6 Oeste 8 Oeste 0 -- -- 43
2020-07-05 05:00:00 14.8 0 Calma 12 Oeste 0 -- -- 43
2020-07-05 04:00:00 15 9 Oeste 14 Oeste 0 -- -- 47
2020-07-05 03:00:00 15.8 9 Oeste 13 Noroeste 0 -- -- 42
2020-07-05 02:00:00 16 8 Oeste 14 Oeste 0 -- -- 38
2020-07-05 01:00:00 16.4 10 Oeste 14 Noroeste 0 -- -- 37
2020-07-05 00:00:00 17.1 10 Oeste 17 Oeste 0 -- -- 35
2020-07-04 23:00:00 18.7 7 Noroeste 12 Norte 0 -- -- 34
2020-07-04 22:00:00 20.5 5 Noroeste 13 Noroeste 0 -- -- 28
2020-07-04 21:00:00 24 10 Norte 24 Norte 0 -- -- 21
2020-07-04 20:00:00 25.6 12 Norte 26 Norte 0 -- -- 19
2020-07-04 19:00:00 26.7 11 Norte 28 Norte 0 -- -- 21
2020-07-04 18:00:00 26.8 14 Norte 28 Norte 0 -- -- 23
2020-07-04 17:00:00 27.5 11 Norte 28 Norte 0 -- -- 24
2020-07-04 16:00:00 27.2 10 Nordeste 28 Este 0 -- -- 28
2020-07-04 15:00:00 26.1 8 Este 22 Este 0 -- -- 37
2020-07-04 14:00:00 25.2 6 Nordeste 22 Este 0 -- -- 41
2020-07-04 13:00:00 24.3 9 Sudeste 21 Este 0 -- -- 49
2020-07-04 12:00:00 23.7 10 Sudoeste 23 Oeste 0 -- -- 32
2020-07-04 11:00:00 21.7 5 Este 15 Este 0 -- -- 55
2020-07-04 10:00:00 19.6 5 Sudeste 12 Este 0 -- -- 68
2020-07-04 09:00:00 17.9 3 Nordeste 7 Este 0 -- -- 75
2020-07-04 08:00:00 15.8 3 Este 5 Sudeste 0 -- -- 84
2020-07-04 07:00:00 13.9 0 Calma 22 Sudoeste 0 -- -- 87
2020-07-04 06:00:00 14.5 9 Sudoeste 18 Sudoeste 0 -- -- 90
2020-07-04 05:00:00 14.5 8 Sur 15 Sudeste 0 -- -- 91
2020-07-04 04:00:00 14.4 3 Sudeste 7 Oeste 0 -- -- 93
2020-07-04 03:00:00 14.4 2 Este 9 Sur 0 -- -- 92
2020-07-04 02:00:00 14.9 4 Sudeste 9 Sur 0 -- -- 88
2020-07-04 01:00:00 14.9 4 Sur 10 Sudeste 0 -- -- 90
2020-07-04 00:00:00 15.7 7 Sudeste 11 Sur 0 -- -- 75
2020-07-03 23:00:00 16.5 5 Oeste 14 Norte 0 -- -- 57
2020-07-03 22:00:00 19.1 8 Norte 21 Norte 0 -- -- 50
2020-07-03 21:00:00 22.1 8 Norte 18 Nordeste 0 -- -- 43
2020-07-03 20:00:00 24 12 Norte 19 Norte 0 -- -- 40
2020-07-03 19:00:00 25.1 10 Norte 19 Oeste 0 -- -- 38
2020-07-03 18:00:00 25.1 10 Oeste 21 Este 0 -- -- 33
2020-07-03 17:00:00 23.5 6 Sudeste 22 Noroeste 0 -- -- 47
2020-07-03 16:00:00 22.7 8 Este 24 Este 0 -- -- 47
2020-07-03 15:00:00 21.7 14 Sudeste 22 Este 0 -- -- 53
2020-07-03 14:00:00 20 10 Este 23 Sudeste 0 -- -- 57
2020-07-03 13:00:00 19.8 8 Sudeste 23 Sudeste 0 -- -- 57
2020-07-03 12:00:00 18 9 Sudeste 22 Este 0 -- -- 62
2020-07-03 11:00:00 17.2 6 Nordeste 14 Este 0 -- -- 64
2020-07-03 10:00:00 14.5 6 Noroeste 13 Noroeste 0 -- -- 72
2020-07-03 09:00:00 13 8 Noroeste 16 Noroeste 0 -- -- 77
2020-07-03 08:00:00 12 10 Noroeste 15 Noroeste 0 -- -- 80
2020-07-03 07:00:00 12.1 9 Noroeste 14 Noroeste 0 -- -- 82
2020-07-03 06:00:00 12 10 Oeste 15 Oeste 0 -- -- 83
2020-07-03 05:00:00 11.8 9 Oeste 15 Oeste 0 -- -- 86
2020-07-03 04:00:00 11 10 Oeste 14 Oeste 0 -- -- 89
2020-07-03 03:00:00 12.2 7 Noroeste 12 Noroeste 0 -- -- 85
2020-07-03 02:00:00 14.7 3 Noroeste 13 Oeste 0 -- -- 76
2020-07-03 01:00:00 14.7 9 Noroeste 15 Noroeste 0 -- -- 76
2020-07-03 00:00:00 17.1 5 Noroeste 14 Noroeste 0 -- -- 52
2020-07-02 23:00:00 20.2 8 Oeste 19 Oeste 0 -- -- 28
2020-07-02 22:00:00 21.7 14 Oeste 22 Oeste 0 -- -- 29
2020-07-02 21:00:00 23.8 14 Oeste 27 Oeste 0 -- -- 29
2020-07-02 20:00:00 24.3 14 Oeste 39 Oeste 0 -- -- 29
2020-07-02 19:00:00 26.2 12 Oeste 37 Oeste 0 -- -- 26
2020-07-02 18:00:00 26.8 15 Sudoeste 32 Sudoeste 0 -- -- 24
2020-07-02 17:00:00 26.6 18 Sur 40 Sudoeste 0 -- -- 25
2020-07-02 16:00:00 26.6 19 Oeste 35 Oeste 0 -- -- 24
2020-07-02 15:00:00 26.4 17 Sudoeste 38 Sudoeste 0 -- -- 30
2020-07-02 14:00:00 25.8 18 Sudoeste 38 Sudoeste 0 -- -- 30
2020-07-02 13:00:00 24.9 16 Sudoeste 31 Oeste 0 -- -- 32
2020-07-02 12:00:00 24.2 17 Oeste 39 Oeste 0 -- -- 35
2020-07-02 11:00:00 24.4 13 Sudoeste 31 Sudoeste 0 -- -- 34
2020-07-02 10:00:00 23.6 12 Sudoeste 31 Sudoeste 0 -- -- 35
2020-07-02 09:00:00 22.8 9 Sudoeste 22 Sudoeste 0 -- -- 36
2020-07-02 08:00:00 21.5 8 Oeste 14 Oeste 0 -- -- 38
2020-07-02 07:00:00 19 9 Sudoeste 13 Sudoeste 0 -- -- 41
2020-07-02 06:00:00 18.8 7 Oeste 15 Oeste 0 -- -- 41
2020-07-02 05:00:00 18.9 12 Oeste 19 Oeste 0 -- -- 40
2020-07-02 04:00:00 20.6 13 Oeste 27 Oeste 0 -- -- 37
2020-07-02 03:00:00 21.6 19 Oeste 32 Oeste 0 -- -- 35
2020-07-02 02:00:00 21.7 16 Oeste 30 Oeste 0 -- -- 33
2020-07-02 01:00:00 22.5 18 Oeste 28 Oeste 0 -- -- 29
2020-07-02 00:00:00 22.8 15 Oeste 23 Oeste 0 -- -- 29
2020-07-01 23:00:00 23.2 13 Oeste 22 Oeste 0 -- -- 28
2020-07-01 22:00:00 23.7 10 Oeste 23 Sudoeste 0 -- -- 30
2020-07-01 21:00:00 26.2 10 Oeste 31 Oeste 0 -- -- 25
2020-07-01 20:00:00 27.7 9 Sudoeste 36 Oeste 0 -- -- 25
2020-07-01 19:00:00 28 20 Oeste 34 Oeste 0 -- -- 22
2020-07-01 18:00:00 28.5 19 Oeste 39 Oeste 0 -- -- 22
2020-07-01 17:00:00 27.8 16 Oeste 42 Noroeste 0 -- -- 25
2020-07-01 16:00:00 27.9 10 Oeste 33 Oeste 0 -- -- 27
2020-07-01 15:00:00 27.7 14 Oeste 41 Oeste 0 -- -- 26
2020-07-01 14:00:00 26.4 18 Oeste 39 Oeste 0 -- -- 29
2020-07-01 13:00:00 26 17 Sudoeste 39 Oeste 0 -- -- 27
2020-07-01 12:00:00 25.3 16 Oeste 39 Oeste 0 -- -- 37
2020-07-01 11:00:00 25.3 10 Oeste 26 Oeste 0 -- -- 38
2020-07-01 10:00:00 23.9 14 Oeste 30 Oeste 0 -- -- 42
2020-07-01 09:00:00 23 18 Oeste 30 Oeste 0 -- -- 43
2020-07-01 08:00:00 21.5 20 Sudoeste 34 Oeste 0 -- -- 46
2020-07-01 07:00:00 20.4 19 Sudoeste 29 Sudoeste 0 -- -- 47
2020-07-01 06:00:00 20.3 17 Sudoeste 26 Sudoeste 0 -- -- 48
2020-07-01 05:00:00 20.1 19 Sudoeste 33 Sudoeste 0 -- -- 48
2020-07-01 04:00:00 19.6 18 Sudoeste 35 Sudoeste 0 -- -- 52
2020-07-01 03:00:00 20 17 Sur 36 Sur 0 -- -- 52
2020-07-01 02:00:00 18 16 Sur 26 Sudeste 0 -- -- 66
2020-07-01 01:00:00 18.5 19 Sur 30 Sur 0 -- -- 65
2020-07-01 00:00:00 19 16 Sur 29 Sur 0 -- -- 67
2020-06-30 23:00:00 19.3 17 Sur 28 Sur 0 -- -- 69
2020-06-30 22:00:00 20.6 17 Sudeste 26 Sudeste 0 -- -- 66
2020-06-30 21:00:00 22.6 13 Sudeste 32 Sudeste 0 -- -- 62
2020-06-30 20:00:00 24.7 20 Sudeste 37 Sudeste 0 -- -- 55
2020-06-30 19:00:00 25.9 21 Sudeste 44 Sudeste 0 -- -- 48
2020-06-30 18:00:00 27.1 24 Sudeste 40 Sudeste 0 -- -- 45
2020-06-30 17:00:00 28.5 14 Sur 49 Sudeste 0 -- -- 36
2020-06-30 16:00:00 28.1 18 Sudeste 40 Sudeste 0 -- -- 37
2020-06-30 15:00:00 27.6 26 Sudeste 45 Sudeste 0 -- -- 39
2020-06-30 14:00:00 27.5 21 Sudeste 33 Sudeste 0 -- -- 39
2020-06-30 13:00:00 26.6 19 Sudeste 30 Este 0 -- -- 40
2020-06-30 12:00:00 25.6 16 Sudeste 25 Sudeste 0 -- -- 42
2020-06-30 11:00:00 24.5 14 Sudeste 24 Sur 0 -- -- 44
2020-06-30 10:00:00 23.5 15 Sur 25 Sudeste 0 -- -- 40
2020-06-30 09:00:00 21.3 14 Sur 26 Sur 0 -- -- 44
2020-06-30 08:00:00 19.6 13 Sur 23 Sur 0 -- -- 47
2020-06-30 07:00:00 18.4 16 Sur 27 Sur 0 -- -- 49
2020-06-30 06:00:00 18 15 Sur 25 Sur 0 -- -- 52
2020-06-30 05:00:00 17.3 15 Sur 24 Sur 0 -- -- 61
2020-06-30 04:00:00 17.3 13 Sur 24 Sur 0 -- -- 62
2020-06-30 03:00:00 17.7 16 Sur 25 Sur 0 -- -- 62
2020-06-30 02:00:00 17.6 14 Sur 23 Sur 0 -- -- 69
2020-06-30 01:00:00 17.8 17 Sur 24 Sur 0 -- -- 68
2020-06-30 00:00:00 17.7 14 Sudeste 23 Sudeste 0 -- -- 71
2020-06-29 23:00:00 18.5 15 Sur 25 Sur 0 -- -- 69
2020-06-29 22:00:00 20.4 22 Sur 28 Sur 0 -- -- 67
2020-06-29 21:00:00 23.5 17 Sur 26 Sudeste 0 -- -- 56
2020-06-29 20:00:00 27.2 11 Sur 27 Sudoeste 0 -- -- 46
2020-06-29 19:00:00 29.1 9 Sur 27 Sudoeste 0 -- -- 28
2020-06-29 18:00:00 29.6 13 Oeste 26 Sudoeste 0 -- -- 28
2020-06-29 17:00:00 29.7 9 Sudoeste 38 Sudoeste 0 -- -- 26
2020-06-29 16:00:00 28.9 9 Sudoeste 37 Sudoeste 0 -- -- 29
2020-06-29 15:00:00 28.5 10 Oeste 31 Oeste 0 -- -- 31
2020-06-29 14:00:00 27.6 13 Oeste 28 Sur 0 -- -- 31
2020-06-29 13:00:00 27.6 9 Sudoeste 38 Sudoeste 0 -- -- 34
2020-06-29 12:00:00 25.4 14 Sudoeste 28 Oeste 0 -- -- 36
2020-06-29 11:00:00 25.1 8 Sudeste 19 Este 0 -- -- 45
2020-06-29 10:00:00 23.5 11 Sudeste 19 Sudeste 0 -- -- 50
2020-06-29 09:00:00 22.1 5 Este 17 Sudeste 0 -- -- 52
2020-06-29 08:00:00 22.1 9 Sudoeste 15 Sudoeste 0 -- -- 45
2020-06-29 07:00:00 20.1 10 Sudoeste 29 Sudoeste 0 -- -- 49
2020-06-29 06:00:00 19.9 19 Sudoeste 29 Sudoeste 0 -- -- 49
2020-06-29 05:00:00 19.2 24 Sudoeste 33 Sudoeste 0 -- -- 53
2020-06-29 04:00:00 19.1 25 Sudoeste 37 Sudoeste 0 -- -- 60
2020-06-29 03:00:00 19.6 19 Sudoeste 30 Sudoeste 0 -- -- 63
2020-06-29 02:00:00 19.5 8 Sur 28 Sudoeste 0 -- -- 65
2020-06-29 01:00:00 20.1 10 Sudoeste 22 Sudoeste 0 -- -- 61
2020-06-29 00:00:00 18.1 7 Sudeste 14 Sudeste 0 -- -- 72
2020-06-28 23:00:00 21.2 4 Oeste 13 Sudoeste 0 -- -- 43
2020-06-28 22:00:00 22.9 6 Sudoeste 18 Oeste 0 -- -- 37
2020-06-28 21:00:00 25.7 10 Sudoeste 23 Oeste 0 -- -- 33
2020-06-28 20:00:00 25.5 12 Sudoeste 22 Sudoeste 0 -- -- 34
2020-06-28 19:00:00 26.7 12 Oeste 26 Oeste 0 -- -- 33
2020-06-28 18:00:00 27.7 12 Sudoeste 33 Oeste 0 -- -- 32
2020-06-28 17:00:00 28 10 Sur 35 Oeste 0 -- -- 30
2020-06-28 16:00:00 27.2 11 Oeste 24 Oeste 0 -- -- 31
2020-06-28 15:00:00 27.2 15 Sur 29 Sur 0 -- -- 35
2020-06-28 14:00:00 26.1 9 Sudoeste 36 Sur 0 -- -- 37
2020-06-28 13:00:00 24.9 9 Sur 25 Oeste 0 -- -- 40
2020-06-28 12:00:00 24.4 13 Sudoeste 28 Oeste 0 -- -- 41
2020-06-28 11:00:00 23.7 14 Sudoeste 36 Oeste 0 -- -- 41
2020-06-28 10:00:00 22.3 12 Sudeste 17 Sudeste 0 -- -- 48
2020-06-28 09:00:00 20.8 5 Este 9 Este 0 -- -- 53
2020-06-28 08:00:00 17.9 0 Calma 4 Este 0 -- -- 57
2020-06-28 07:00:00 14.8 0 Calma 6 Noroeste 0 -- -- 67
2020-06-28 06:00:00 15.1 0 Calma 11 Sur 0 -- -- 62
2020-06-28 05:00:00 15.1 2 Oeste 29 Sur 0 -- -- 57
2020-06-28 04:00:00 16.6 19 Sur 28 Sur 0 -- -- 50
2020-06-28 03:00:00 16.9 19 Sur 28 Sur 0 -- -- 48
2020-06-28 02:00:00 16.6 16 Sudeste 28 Sur 0 -- -- 60
2020-06-28 01:00:00 18 6 Sudeste 18 Sudoeste 0 -- -- 62
2020-06-28 00:00:00 17.8 3 Oeste 11 Oeste 0 -- -- 61
2020-06-27 23:00:00 19.2 4 Sudoeste 12 Norte 0 -- -- 59
2020-06-27 22:00:00 21.2 6 Sudeste 13 Sudeste 0 -- -- 54
2020-06-27 21:00:00 23.8 6 Este 18 Este 0 -- -- 44
2020-06-27 20:00:00 24.4 12 Norte 19 Noroeste 0 -- -- 34
2020-06-27 19:00:00 25.7 4 Oeste 17 Sudeste 0 -- -- 31
2020-06-27 18:00:00 25.6 6 Sudeste 20 Sudeste 0 -- -- 31
2020-06-27 17:00:00 25 8 Sudeste 24 Sudeste 0 -- -- 33
2020-06-27 16:00:00 25.4 14 Este 28 Sudeste 0 -- -- 33
2020-06-27 15:00:00 25.2 13 Sudeste 25 Este 0 -- -- 35
2020-06-27 14:00:00 24.8 6 Nordeste 15 Este 0 -- -- 35
2020-06-27 13:00:00 23.5 8 Sudeste 16 Este 0 -- -- 36
2020-06-27 12:00:00 22 5 Oeste 17 Este 0 -- -- 38
2020-06-27 11:00:00 20.7 4 Norte 13 Este 0 -- -- 41
2020-06-27 10:00:00 18.4 4 Norte 10 Noroeste 0 -- -- 48
2020-06-27 09:00:00 17.2 7 Noroeste 12 Noroeste 0 -- -- 47
2020-06-27 08:00:00 16.5 6 Noroeste 11 Oeste 0 -- -- 48
2020-06-27 07:00:00 15 9 Oeste 14 Oeste 0 -- -- 49
2020-06-27 06:00:00 13.5 4 Oeste 9 Oeste 0 -- -- 59
2020-06-27 05:00:00 15.4 0 Calma 24 Oeste 0 -- -- 58
2020-06-27 04:00:00 17.3 19 Oeste 30 Oeste 0 -- -- 46
2020-06-27 03:00:00 16.4 14 Sudoeste 23 Sudoeste 0 -- -- 61
2020-06-27 02:00:00 16.9 15 Sudoeste 21 Oeste 0 -- -- 61
2020-06-27 01:00:00 16.8 10 Sudoeste 24 Sur 0 -- -- 60
2020-06-27 00:00:00 16.9 8 Sur 22 Sur 0 -- -- 61
2020-06-26 23:00:00 16.6 15 Sur 26 Sudeste 0 -- -- 58
2020-06-26 22:00:00 17.7 16 Sur 27 Sur 0 -- -- 58
2020-06-26 21:00:00 19.2 15 Sudeste 27 Sudeste 0 -- -- 57
2020-06-26 20:00:00 20.8 19 Sudeste 30 Sudeste 0 -- -- 52
2020-06-26 19:00:00 23.2 13 Sudeste 35 Sudeste 0 -- -- 48
2020-06-26 18:00:00 23.9 15 Sudeste 35 Sudeste 0 -- -- 46
2020-06-26 17:00:00 23.9 20 Sudeste 39 Sudeste 0 -- -- 45
2020-06-26 16:00:00 24.9 19 Sudeste 46 Sudeste 0 -- -- 42
2020-06-26 15:00:00 24.8 12 Sudeste 31 Sudeste 0 -- -- 42
2020-06-26 14:00:00 23.8 18 Sudeste 38 Sudeste 0 -- -- 44
2020-06-26 13:00:00 22.9 18 Este 35 Sudeste 0 -- -- 44
2020-06-26 12:00:00 21.8 21 Sudeste 37 Sudeste 0 -- -- 46
2020-06-26 11:00:00 20.2 20 Sudeste 31 Sudeste 0 -- -- 49
2020-06-26 10:00:00 19.4 16 Sudeste 27 Sur 0 -- -- 52
2020-06-26 09:00:00 17.7 17 Sudeste 30 Sudeste 0 -- -- 54
2020-06-26 08:00:00 15.6 17 Sur 27 Sur 0 -- -- 55
2020-06-26 07:00:00 14.8 17 Sur 26 Sur 0 -- -- 58
2020-06-26 06:00:00 14.5 14 Sur 26 Sur 0 -- -- 60
2020-06-26 05:00:00 14.2 16 Sur 27 Sudeste 0 -- -- 62
2020-06-26 04:00:00 14.3 18 Sur 32 Sudeste 0 -- -- 60
2020-06-26 03:00:00 15.1 22 Sur 35 Sur 0 -- -- 54
2020-06-26 02:00:00 15.9 23 Sur 41 Sur 0 -- -- 51
2020-06-26 01:00:00 16.4 24 Sur 42 Sur 0 -- -- 49
2020-06-26 00:00:00 17.1 19 Sur 33 Sur 0 -- -- 47
2020-06-25 23:00:00 18 19 Sur 35 Sudeste 0 -- -- 46
2020-06-25 22:00:00 18.6 18 Sur 28 Sudeste 0 -- -- 48
2020-06-25 21:00:00 20.6 15 Sudeste 32 Sudeste 0 -- -- 47
2020-06-25 20:00:00 23 17 Sudeste 40 Sudeste 0 -- -- 42
2020-06-25 19:00:00 24.3 22 Sudeste 40 Sudeste 0 -- -- 40
2020-06-25 18:00:00 25.2 24 Sudeste 51 Sudeste 0 -- -- 38
2020-06-25 17:00:00 26 23 Sudeste 46 Sudeste 0 -- -- 36
2020-06-25 16:00:00 26.4 22 Sudeste 40 Sudeste 0 -- -- 35
2020-06-25 15:00:00 26.7 22 Sudeste 41 Este 0 -- -- 33
2020-06-25 14:00:00 26.1 23 Sudeste 37 Este 0 -- -- 34
2020-06-25 13:00:00 25.3 17 Sudeste 31 Este 0 -- -- 36
2020-06-25 12:00:00 24.1 15 Sudeste 24 Este 0 -- -- 42
2020-06-25 11:00:00 23.1 13 Este 27 Este 0 -- -- 41
2020-06-25 10:00:00 21.5 13 Sudeste 26 Sudeste 0 -- -- 48
2020-06-25 09:00:00 20.2 13 Sudeste 21 Sudeste 0 -- -- 51
2020-06-25 08:00:00 18.9 13 Sur 25 Sudeste 0 -- -- 54
2020-06-25 07:00:00 17.5 14 Sur 22 Sur 0 -- -- 54
2020-06-25 06:00:00 16.8 13 Sur 26 Sur 0 -- -- 58
2020-06-25 05:00:00 17.3 17 Sur 27 Sur 0 -- -- 57
2020-06-25 04:00:00 15.8 17 Sur 32 Sur 0 -- -- 63
2020-06-25 03:00:00 16.2 17 Sur 30 Sur 0 -- -- 71
2020-06-25 02:00:00 16 16 Sur 25 Sur 0 -- -- 68
2020-06-25 01:00:00 17.9 10 Sur 16 Sur 0 -- -- 55
2020-06-25 00:00:00 19.5 8 Sur 17 Sur 0 -- -- 50
2020-06-24 23:00:00 19.7 8 Sur 14 Sur 0 -- -- 49
2020-06-24 22:00:00 19.8 7 Sur 9 Sur 0 -- -- 46
2020-06-24 21:00:00 21 8 Sudeste 11 Sudeste 0 -- -- 45
2020-06-24 20:00:00 22 3 Este 20 Este 0 -- -- 43
2020-06-24 19:00:00 21.8 8 Nordeste 23 Norte 0 -- -- 46
2020-06-24 18:00:00 20.9 9 Norte 29 Nordeste 0 -- -- 48
2020-06-24 17:00:00 26.4 15 Noroeste 28 Noroeste 0 -- -- 31
2020-06-24 16:00:00 24.8 20 Noroeste 37 Noroeste 0 -- -- 36
2020-06-24 15:00:00 24 20 Noroeste 31 Noroeste 0 -- -- 40
2020-06-24 14:00:00 25.4 14 Sudoeste 35 Sudoeste 0 -- -- 35
2020-06-24 13:00:00 25.6 15 Sur 31 Sudeste 0 -- -- 39
2020-06-24 12:00:00 25.4 17 Sudeste 27 Sudeste 0 -- -- 40
2020-06-24 11:00:00 22.8 16 Sudeste 25 Sudeste 0 -- -- 47
2020-06-24 10:00:00 21.8 4 Este 10 Sudeste 0 -- -- 53
2020-06-24 09:00:00 20.1 7 Sudeste 18 Sudeste 0 -- -- 56
2020-06-24 08:00:00 18.7 5 Este 28 Sur 0 -- -- 60
2020-06-24 07:00:00 17.9 13 Sur 31 Sudeste 0 -- -- 60
2020-06-24 06:00:00 17 10 Sudoeste 23 Sudoeste 0 -- -- 70
2020-06-24 05:00:00 15 6 Oeste 24 Sur 0 -- -- 73
2020-06-24 04:00:00 17.2 13 Sur 26 Sur 0 -- -- 70
2020-06-24 03:00:00 16.1 10 Sudeste 27 Sur 0 -- -- 75
2020-06-24 02:00:00 17.4 16 Sur 32 Sur 0 -- -- 70
2020-06-24 01:00:00 16.6 21 Sur 30 Sur 0 -- -- 74
2020-06-24 00:00:00 17.2 19 Sur 28 Sur 0 -- -- 73
2020-06-23 23:00:00 17.8 15 Sur 23 Sur 0 -- -- 72
2020-06-23 22:00:00 19 16 Sur 26 Sur 0 -- -- 70
2020-06-23 21:00:00 20.9 15 Este 28 Sudeste 0 -- -- 65
2020-06-23 20:00:00 22.4 17 Sudeste 29 Sudeste 0 -- -- 61
2020-06-23 19:00:00 24.5 16 Sudeste 35 Sudeste 0 -- -- 50
2020-06-23 18:00:00 25.3 18 Sudeste 30 Este 0 -- -- 45
2020-06-23 17:00:00 26.4 9 Sur 18 Sudoeste 0 -- -- 36
2020-06-23 16:00:00 27.2 8 Sudoeste 24 Sudoeste 0 -- -- 31
2020-06-23 15:00:00 27.1 14 Sur 31 Sudeste 0 -- -- 35
2020-06-23 14:00:00 26.3 15 Sur 33 Sur 0 -- -- 35
2020-06-23 13:00:00 25 17 Sudeste 33 Sur 0 -- -- 40
2020-06-23 12:00:00 23.9 11 Sudeste 22 Sudeste 0 -- -- 43
2020-06-23 11:00:00 22.1 14 Sudeste 25 Sudeste 0 -- -- 53
2020-06-23 10:00:00 20.4 17 Sudeste 27 Sudeste 0 -- -- 56
2020-06-23 09:00:00 18.6 15 Sudeste 22 Sudeste 0 -- -- 62
2020-06-23 08:00:00 17.9 12 Sur 22 Sur 0 -- -- 67
2020-06-23 07:00:00 16.5 15 Sur 25 Sur 0 -- -- 73
2020-06-23 06:00:00 16.3 18 Sur 29 Sur 0 -- -- 67
2020-06-23 05:00:00 16.3 18 Sur 26 Sur 0 -- -- 70
2020-06-23 04:00:00 15.8 5 Sur 17 Sur 0 -- -- 70
2020-06-23 03:00:00 17 9 Sur 18 Sur 0 -- -- 64
2020-06-23 02:00:00 17.1 5 Sur 12 Sur 0 -- -- 72
2020-06-23 01:00:00 17.8 8 Sur 13 Sur 0 -- -- 70
2020-06-23 00:00:00 18.1 9 Sur 18 Sur 0 -- -- 67
2020-06-22 23:00:00 18.1 11 Sur 14 Sur 0 -- -- 68
2020-06-22 22:00:00 19.8 11 Sur 26 Sudeste 0 -- -- 62
2020-06-22 21:00:00 22 14 Sudeste 22 Sudeste 0 -- -- 52
2020-06-22 20:00:00 23.4 13 Sudeste 22 Sudeste 0 -- -- 47
2020-06-22 19:00:00 25.6 16 Sudeste 27 Este 0 -- -- 43
2020-06-22 18:00:00 26.1 15 Sudeste 28 Sudeste 0 -- -- 40
2020-06-22 17:00:00 26.3 14 Sudeste 26 Este 0 -- -- 40
2020-06-22 16:00:00 25.3 10 Este 27 Este 0 -- -- 38
2020-06-22 15:00:00 25.2 14 Este 31 Sudeste 0 -- -- 37
2020-06-22 14:00:00 24.8 12 Sudeste 24 Sudeste 0 -- -- 39
2020-06-22 13:00:00 23.8 14 Sudeste 27 Este 0 -- -- 45
2020-06-22 12:00:00 22.6 12 Este 23 Este 0 -- -- 45
2020-06-22 11:00:00 21.4 9 Este 17 Este 0 -- -- 49
2020-06-22 10:00:00 18.3 5 Norte 13 Noroeste 0 -- -- 56
2020-06-22 09:00:00 16.2 9 Noroeste 15 Noroeste 0 -- -- 61
2020-06-22 08:00:00 14.8 11 Noroeste 20 Oeste 0 -- -- 66
2020-06-22 07:00:00 13.1 14 Oeste 24 Oeste 0 -- -- 71
2020-06-22 06:00:00 13.5 12 Oeste 22 Oeste 0 -- -- 67
2020-06-22 05:00:00 13.2 16 Oeste 23 Oeste 0 -- -- 67
2020-06-22 04:00:00 12.9 17 Oeste 23 Oeste 0 -- -- 67
2020-06-22 03:00:00 13.1 16 Oeste 23 Oeste 0 -- -- 67
2020-06-22 02:00:00 13.9 16 Oeste 22 Oeste 0 -- -- 64
2020-06-22 01:00:00 14.7 15 Oeste 23 Oeste 0 -- -- 66
2020-06-22 00:00:00 16.9 9 Noroeste 16 Noroeste 0 -- -- 58
2020-06-21 23:00:00 18.4 8 Noroeste 18 Noroeste 0 -- -- 53
2020-06-21 22:00:00 20.3 11 Noroeste 17 Noroeste 0 -- -- 40
2020-06-21 21:00:00 22.4 8 Noroeste 17 Norte 0 -- -- 38
2020-06-21 20:00:00 24.2 11 Norte 22 Nordeste 0 -- -- 33
2020-06-21 19:00:00 24.7 12 Nordeste 22 Nordeste 0 -- -- 33
2020-06-21 18:00:00 25.5 7 Este 17 Nordeste 0 -- -- 31
2020-06-21 17:00:00 25.6 10 Nordeste 42 Nordeste 0 -- -- 33
2020-06-21 16:00:00 26.5 5 Este 21 Este 0 -- -- 34
2020-06-21 15:00:00 25.5 5 Sudeste 21 Sudeste 0 -- -- 35
2020-06-21 14:00:00 24.7 12 Nordeste 27 Este 0 -- -- 34
2020-06-21 13:00:00 24.1 11 Este 28 Sudeste 0 -- -- 38
2020-06-21 12:00:00 23.9 14 Noroeste 27 Noroeste 0 -- -- 34
2020-06-21 11:00:00 23.3 5 Norte 17 Norte 0 -- -- 39
2020-06-21 10:00:00 22 5 Norte 9 Nordeste 0 -- -- 43
2020-06-21 09:00:00 20.6 4 Norte 9 Oeste 0 -- -- 45
2020-06-21 08:00:00 17.8 4 Noroeste 8 Oeste 0 -- -- 45
2020-06-21 07:00:00 15.4 5 Oeste 14 Oeste 0 -- -- 42
2020-06-21 06:00:00 15.5 8 Oeste 10 Oeste 0 -- -- 43
2020-06-21 05:00:00 15.8 7 Oeste 11 Oeste 0 -- -- 40
2020-06-21 04:00:00 16.1 10 Oeste 18 Oeste 0 -- -- 38
2020-06-21 03:00:00 19.8 15 Oeste 24 Oeste 0 -- -- 30
2020-06-21 02:00:00 18.7 12 Oeste 19 Oeste 0 -- -- 32
2020-06-21 01:00:00 18.5 8 Noroeste 25 Oeste 0 -- -- 35
2020-06-21 00:00:00 19.4 17 Oeste 22 Oeste 0 -- -- 33
2020-06-20 23:00:00 19.5 17 Oeste 22 Oeste 0 -- -- 34
2020-06-20 22:00:00 20.2 14 Oeste 20 Oeste 0 -- -- 32
2020-06-20 21:00:00 22.1 11 Oeste 24 Oeste 0 -- -- 32
2020-06-20 20:00:00 23.9 16 Oeste 26 Noroeste 0 -- -- 28
2020-06-20 19:00:00 24.8 14 Oeste 32 Oeste 0 -- -- 27
2020-06-20 18:00:00 25.2 16 Oeste 30 Sudoeste 0 -- -- 28
2020-06-20 17:00:00 25.2 13 Oeste 30 Oeste 0 -- -- 28
2020-06-20 16:00:00 25.1 12 Sudoeste 30 Sudoeste 0 -- -- 30
2020-06-20 15:00:00 24.6 11 Noroeste 33 Oeste 0 -- -- 29
2020-06-20 14:00:00 23.9 12 Sur 29 Oeste 0 -- -- 32
2020-06-20 13:00:00 22.8 16 Oeste 34 Oeste 0 -- -- 30
2020-06-20 12:00:00 21.8 17 Oeste 40 Oeste 0 -- -- 36
2020-06-20 11:00:00 21.2 14 Oeste 24 Oeste 0 -- -- 40
2020-06-20 10:00:00 20.3 6 Oeste 16 Sudoeste 0 -- -- 43
2020-06-20 09:00:00 19.4 10 Sudoeste 18 Sudoeste 0 -- -- 41
2020-06-20 08:00:00 18.4 8 Sudoeste 16 Oeste 0 -- -- 45
2020-06-20 07:00:00 16.5 12 Oeste 21 Oeste 0 -- -- 45
2020-06-20 06:00:00 16 15 Oeste 22 Sudoeste 0 -- -- 50
2020-06-20 05:00:00 13.9 18 Sudoeste 27 Sudoeste 0 -- -- 77
2020-06-20 04:00:00 13.4 7 Sur 30 Sudoeste 0 -- -- 89
2020-06-20 03:00:00 14.2 13 Sudoeste 33 Sudoeste 0 -- -- 87
2020-06-20 02:00:00 14.7 19 Sudoeste 36 Sudoeste 0 -- -- 88
2020-06-20 01:00:00 14.7 17 Sudoeste 30 Sur 0 -- -- 90
2020-06-20 00:00:00 14.1 17 Sur 25 Sur 0 -- -- 91
2020-06-19 23:00:00 15.8 12 Sur 24 Sur 0 -- -- 76
2020-06-19 22:00:00 16.5 11 Sur 19 Sur 0 -- -- 76
2020-06-19 21:00:00 19 14 Sur 22 Sur 0 -- -- 69
2020-06-19 20:00:00 21.9 9 Oeste 25 Sudoeste 0 -- -- 37
2020-06-19 19:00:00 22.1 9 Sudoeste 22 Sudoeste 0 -- -- 36
2020-06-19 18:00:00 22.9 13 Sudoeste 28 Oeste 0 -- -- 37
2020-06-19 17:00:00 22.2 13 Oeste 30 Oeste 0 -- -- 40
2020-06-19 16:00:00 20.6 19 Sudoeste 31 Sudoeste 0 -- -- 47
2020-06-19 15:00:00 20.4 12 Oeste 33 Sudoeste 0 -- -- 45
2020-06-19 14:00:00 20.6 17 Oeste 31 Sudoeste 0 -- -- 45
2020-06-19 13:00:00 20.8 7 Sudoeste 26 Sudoeste 0 -- -- 51
2020-06-19 12:00:00 19.1 12 Sur 30 Sudeste 0 -- -- 64
2020-06-19 11:00:00 16.9 17 Sudeste 29 Sudeste 0 -- -- 70
2020-06-19 10:00:00 15.9 21 Sudeste 30 Sudeste 0 -- -- 76
2020-06-19 09:00:00 13.2 7 Sudeste 22 Sur 0 -- -- 90
2020-06-19 08:00:00 12.4 13 Sur 24 Sur 0 -- -- 95
2020-06-19 07:00:00 11.9 14 Sur 31 Sur 0 -- -- 97
2020-06-19 06:00:00 11.8 22 Sudeste 33 Sudeste 0 -- -- 98
2020-06-19 05:00:00 11.9 17 Sur 29 Sudeste 0 -- -- 98
2020-06-19 04:00:00 12.2 17 Sudeste 28 Sudeste 0.2 -- -- 98
2020-06-19 03:00:00 12.4 12 Sudeste 23 Sudeste 0 -- -- 97
2020-06-19 02:00:00 12.3 9 Sudeste 23 Sudeste 0 -- -- 96
2020-06-19 01:00:00 12.9 15 Sudeste 25 Sudeste 0 -- -- 94
2020-06-19 00:00:00 13.2 18 Sur 32 Sudeste 0 -- -- 91
2020-06-18 23:00:00 13.2 24 Sur 46 Sudeste 0 -- -- 92
2020-06-18 22:00:00 14.6 18 Sur 26 Sudeste 0 -- -- 86
2020-06-18 21:00:00 16.9 17 Sudeste 24 Sudeste 0 -- -- 75
2020-06-18 20:00:00 20 9 Sudeste 25 Sudoeste 0 -- -- 60
2020-06-18 19:00:00 21 10 Oeste 26 Oeste 0 -- -- 38
2020-06-18 18:00:00 21.1 12 Sudoeste 36 Oeste 0 -- -- 37
2020-06-18 17:00:00 20.2 9 Sur 29 Sudeste 0 -- -- 39
2020-06-18 16:00:00 20.4 12 Sur 30 Sur 0 -- -- 40
2020-06-18 15:00:00 20.2 8 Sudoeste 33 Sudeste 0 -- -- 41
2020-06-18 14:00:00 19 9 Sur 24 Sudeste 0 -- -- 47
2020-06-18 13:00:00 19 14 Sudeste 25 Sudeste 0 -- -- 50
2020-06-18 12:00:00 17.9 10 Sudoeste 27 Sudeste 0 -- -- 52
2020-06-18 11:00:00 16.6 11 Sudeste 24 Sudeste 0 -- -- 68
2020-06-18 10:00:00 14.6 10 Sudeste 19 Este 0 -- -- 77
2020-06-18 09:00:00 13 12 Sudeste 18 Sudeste 0 -- -- 84
2020-06-18 08:00:00 10.6 8 Sudoeste 21 Sudoeste 0 -- -- 88
2020-06-18 07:00:00 10.6 8 Sur 23 Sur 0 -- -- 90
2020-06-18 06:00:00 10.8 12 Sur 24 Sur 0 -- -- 91
2020-06-18 05:00:00 10.9 12 Sur 21 Sur 0 -- -- 91
2020-06-18 04:00:00 10.7 13 Sur 21 Sudeste 0 -- -- 93
2020-06-18 03:00:00 10.9 10 Sur 28 Sur 0 -- -- 87
2020-06-18 02:00:00 11 16 Sudeste 28 Sur 0 -- -- 93
2020-06-18 01:00:00 11.3 18 Sudeste 32 Sudeste 0 -- -- 93
2020-06-18 00:00:00 11.5 14 Sudeste 21 Sudeste 0 -- -- 91
2020-06-17 23:00:00 11.9 12 Sudeste 25 Sudeste 0 -- -- 91
2020-06-17 22:00:00 13.1 9 Sudeste 15 Sudeste 0 -- -- 84
2020-06-17 21:00:00 14.9 4 Oeste 10 Oeste 0 -- -- 59
2020-06-17 20:00:00 16.8 7 Noroeste 23 Oeste 0 -- -- 51
2020-06-17 19:00:00 19.4 4 Oeste 29 Oeste 0 -- -- 38
2020-06-17 18:00:00 19.2 9 Sudoeste 31 Sudoeste 0 -- -- 39
2020-06-17 17:00:00 18.6 9 Sudoeste 29 Sudoeste 0 -- -- 40
2020-06-17 16:00:00 17.5 9 Sur 28 Oeste 0 -- -- 44
2020-06-17 15:00:00 17.5 13 Sudoeste 29 Sudoeste 0 -- -- 41
2020-06-17 14:00:00 16.5 12 Oeste 31 Oeste 0 -- -- 44
2020-06-17 13:00:00 16.4 7 Oeste 25 Oeste 0 -- -- 48
2020-06-17 12:00:00 14.3 7 Sudoeste 22 Sudeste 0 -- -- 56
2020-06-17 11:00:00 14.7 13 Sudeste 27 Sudeste 0 -- -- 60
2020-06-17 10:00:00 13.4 8 Sudeste 16 Este 0 -- -- 70
2020-06-17 09:00:00 11.7 6 Sudeste 11 Este 0 -- -- 78
2020-06-17 08:00:00 9.6 2 Sudeste 6 Sudoeste 0 -- -- 82
2020-06-17 07:00:00 9.2 0 Calma 7 Sur 0 -- -- 81
2020-06-17 06:00:00 9 0 Calma 7 Sur 0 -- -- 85
2020-06-17 05:00:00 8.2 0 Calma 6 Sudoeste 0 -- -- 87
2020-06-17 04:00:00 8.8 3 Noroeste 5 Noroeste 0 -- -- 86
2020-06-17 03:00:00 9.6 2 Sudeste 17 Oeste 0 -- -- 80
2020-06-17 02:00:00 10.7 7 Oeste 16 Oeste 0 -- -- 70
2020-06-17 01:00:00 11.4 8 Oeste 15 Oeste 0 -- -- 70
2020-06-17 00:00:00 12.1 7 Noroeste 26 Sudoeste 0 -- -- 71
2020-06-16 23:00:00 12.9 5 Noroeste 17 Norte 0 -- -- 64
2020-06-16 22:00:00 14.2 12 Oeste 23 Oeste 0 -- -- 51
2020-06-16 21:00:00 16.3 11 Oeste 33 Oeste 0 -- -- 45
2020-06-16 20:00:00 17.3 18 Oeste 34 Oeste 0 -- -- 42
2020-06-16 19:00:00 17.7 18 Oeste 35 Oeste 0 -- -- 43
2020-06-16 18:00:00 18.6 15 Oeste 37 Oeste 0 -- -- 46
2020-06-16 17:00:00 18 11 Oeste 32 Oeste 0 -- -- 51
2020-06-16 16:00:00 14.7 5 Norte 17 Norte 0 -- -- 74
2020-06-16 15:00:00 13.8 7 Norte 14 Nordeste 0 -- -- 77
2020-06-16 14:00:00 13.1 9 Norte 15 Norte 0 -- -- 79
2020-06-16 13:00:00 13.8 8 Norte 15 Nordeste 0 -- -- 77
2020-06-16 12:00:00 14.7 8 Nordeste 15 Este 0 -- -- 72
2020-06-16 11:00:00 15.6 6 Este 15 Este 0 -- -- 67
2020-06-16 10:00:00 14.8 5 Este 12 Sudeste 0 -- -- 70
2020-06-16 09:00:00 12 6 Norte 11 Oeste 0 -- -- 82
2020-06-16 08:00:00 10.9 9 Oeste 16 Oeste 0 -- -- 85
2020-06-16 07:00:00 10 11 Oeste 15 Oeste 0 -- -- 87
2020-06-16 06:00:00 10.5 8 Oeste 10 Oeste 0 -- -- 82
2020-06-16 05:00:00 10.9 5 Oeste 9 Oeste 0 -- -- 81
2020-06-16 04:00:00 11.3 4 Oeste 9 Oeste 0 -- -- 79
2020-06-16 03:00:00 11.7 5 Oeste 13 Oeste 0 -- -- 76
2020-06-16 02:00:00 12.2 10 Oeste 15 Oeste 0 -- -- 74
2020-06-16 01:00:00 12.9 9 Oeste 17 Oeste 0 -- -- 67
2020-06-16 00:00:00 13.6 6 Noroeste 19 Sudoeste 0 -- -- 49
2020-06-15 23:00:00 16.5 13 Oeste 22 Oeste 0 -- -- 36
2020-06-15 22:00:00 16.7 10 Sudoeste 15 Oeste 0 -- -- 36
2020-06-15 21:00:00 19.9 6 Sudoeste 23 Sudoeste 0 -- -- 31
2020-06-15 20:00:00 21.1 10 Sudoeste 27 Oeste 0 -- -- 29
2020-06-15 19:00:00 21.7 8 Sudoeste 31 Sudoeste 0 -- -- 31
2020-06-15 18:00:00 21.2 18 Oeste 33 Oeste 0 -- -- 33
2020-06-15 17:00:00 21.9 13 Oeste 33 Oeste 0 -- -- 32
2020-06-15 16:00:00 21.3 14 Oeste 30 Oeste 0 -- -- 34
2020-06-15 15:00:00 20.9 14 Noroeste 27 Oeste 0 -- -- 37
2020-06-15 14:00:00 19.9 11 Oeste 24 Oeste 0 -- -- 32
2020-06-15 13:00:00 19.4 10 Sur 36 Oeste 0 -- -- 38
2020-06-15 12:00:00 18.2 5 Oeste 24 Oeste 0 -- -- 42
2020-06-15 11:00:00 17 11 Oeste 28 Oeste 0 -- -- 48
2020-06-15 10:00:00 16.3 5 Sudoeste 21 Oeste 0 -- -- 51
2020-06-15 09:00:00 15.1 4 Sudeste 24 Oeste 0 -- -- 58
2020-06-15 08:00:00 14.3 5 Sudeste 17 Oeste 0 -- -- 59
2020-06-15 07:00:00 10.7 8 Sur 10 Sur 0 -- -- 68
2020-06-15 06:00:00 10.2 0 Calma 7 Sudeste 0 -- -- 70
2020-06-15 05:00:00 10.5 3 Sur 6 Oeste 0 -- -- 69
2020-06-15 04:00:00 11 6 Oeste 10 Oeste 0 -- -- 70
2020-06-15 03:00:00 11.6 4 Oeste 10 Oeste 0 -- -- 68
2020-06-15 02:00:00 12.1 6 Oeste 10 Oeste 0 -- -- 65
2020-06-15 01:00:00 12.6 2 Oeste 18 Oeste 0 -- -- 59
2020-06-15 00:00:00 13.9 14 Oeste 19 Oeste 0 -- -- 54
2020-06-14 23:00:00 14.1 12 Oeste 19 Oeste 0 -- -- 55
2020-06-14 22:00:00 14.5 12 Oeste 22 Noroeste 0 -- -- 53
2020-06-14 21:00:00 16.5 14 Oeste 24 Oeste 0 -- -- 48
2020-06-14 20:00:00 18.7 12 Oeste 26 Noroeste 0 -- -- 41
2020-06-14 19:00:00 19.3 14 Noroeste 33 Oeste 0 -- -- 39
2020-06-14 18:00:00 19.6 9 Oeste 32 Oeste 0 -- -- 39
2020-06-14 17:00:00 19.7 15 Oeste 30 Oeste 0 -- -- 38
2020-06-14 16:00:00 19.4 9 Oeste 22 Oeste 0 -- -- 38
2020-06-14 15:00:00 17.7 10 Oeste 36 Oeste 0 -- -- 43
2020-06-14 14:00:00 17.5 12 Sudoeste 28 Oeste 0 -- -- 43
2020-06-14 13:00:00 16.7 15 Oeste 38 Oeste 0 -- -- 44
2020-06-14 12:00:00 15.9 14 Oeste 25 Sudoeste 0 -- -- 48
2020-06-14 11:00:00 15.2 13 Sudoeste 28 Sudoeste 0 -- -- 50
2020-06-14 10:00:00 13.8 5 Sudoeste 25 Oeste 0 -- -- 53
2020-06-14 09:00:00 12.4 2 Norte 10 Oeste 0 -- -- 57
2020-06-14 08:00:00 11.3 3 Sudoeste 10 Sudoeste 0 -- -- 58
2020-06-14 07:00:00 10.2 7 Sudoeste 11 Sudoeste 0 -- -- 58
2020-06-14 06:00:00 9.8 3 Sudeste 12 Sudoeste 0 -- -- 58
2020-06-14 05:00:00 10.7 9 Oeste 15 Sudoeste 0 -- -- 56
2020-06-14 04:00:00 10.4 12 Oeste 15 Oeste 0 -- -- 56
2020-06-14 03:00:00 10.6 12 Oeste 15 Oeste 0 -- -- 55
2020-06-14 02:00:00 10.6 12 Oeste 17 Oeste 0 -- -- 56
2020-06-14 01:00:00 11 9 Oeste 16 Oeste 0 -- -- 52
2020-06-14 00:00:00 11.5 8 Oeste 18 Oeste 0 -- -- 51
2020-06-13 23:00:00 12.3 13 Oeste 21 Oeste 0 -- -- 51
2020-06-13 22:00:00 12.4 8 Oeste 17 Oeste 0 -- -- 51
2020-06-13 21:00:00 14.4 9 Oeste 29 Oeste 0 -- -- 47
2020-06-13 20:00:00 15.7 12 Oeste 27 Oeste 0 -- -- 43
2020-06-13 19:00:00 16.4 15 Oeste 33 Oeste 0 -- -- 40
2020-06-13 18:00:00 16.5 15 Oeste 31 Oeste 0 -- -- 40
2020-06-13 17:00:00 17.4 12 Oeste 32 Oeste 0 -- -- 40
2020-06-13 16:00:00 16.4 15 Oeste 31 Oeste 0 -- -- 42
2020-06-13 15:00:00 15.5 9 Noroeste 27 Noroeste 0 -- -- 44
2020-06-13 14:00:00 14.2 13 Noroeste 28 Noroeste 0 -- -- 47
2020-06-13 13:00:00 13.4 19 Oeste 35 Noroeste 0 -- -- 49
2020-06-13 12:00:00 12.2 17 Noroeste 30 Oeste 0 -- -- 54
2020-06-13 11:00:00 11.3 15 Oeste 36 Oeste 0 -- -- 61
2020-06-13 10:00:00 10.7 21 Noroeste 36 Noroeste 0 -- -- 64
2020-06-13 09:00:00 9.8 10 Norte 22 Oeste 0 -- -- 66
2020-06-13 08:00:00 8 10 Noroeste 37 Oeste 0 -- -- 73
2020-06-13 07:00:00 6.7 12 Noroeste 35 Oeste 0 -- -- 79
2020-06-13 06:00:00 7.2 6 Oeste 29 Noroeste 0 -- -- 79
2020-06-13 05:00:00 6.5 14 Oeste 26 Oeste 0 -- -- 83
2020-06-13 04:00:00 5.4 12 Oeste 18 Oeste 0 -- -- 83
2020-06-13 03:00:00 5.8 12 Noroeste 38 Noroeste 0 -- -- 82
2020-06-13 02:00:00 8.2 24 Oeste 41 Oeste 0 -- -- 71
2020-06-13 01:00:00 9.3 6 Oeste 19 Oeste 0 -- -- 67
2020-06-13 00:00:00 9.4 5 Oeste 14 Oeste 0 -- -- 64
2020-06-12 23:00:00 9.7 3 Oeste 20 Sudoeste 0 -- -- 61
2020-06-12 22:00:00 10.8 6 Oeste 15 Oeste 0 -- -- 58
2020-06-12 21:00:00 12.2 9 Noroeste 24 Oeste 0 -- -- 53
2020-06-12 20:00:00 14 6 Sur 28 Sudoeste 0 -- -- 47
2020-06-12 19:00:00 14.4 15 Oeste 33 Sudoeste 0 -- -- 45
2020-06-12 18:00:00 14.5 11 Sudoeste 42 Sudoeste 0 -- -- 45
2020-06-12 17:00:00 14.7 12 Sudoeste 42 Sudoeste 0 -- -- 44
2020-06-12 16:00:00 14.5 12 Sudoeste 39 Sudoeste 0 -- -- 46
2020-06-12 15:00:00 13.8 14 Sudoeste 35 Sudoeste 0 -- -- 50
2020-06-12 14:00:00 13.1 15 Oeste 33 Oeste 0 -- -- 51
2020-06-12 13:00:00 12.9 10 Sudoeste 27 Sudoeste 0 -- -- 50
2020-06-12 12:00:00 11.6 10 Oeste 30 Sudoeste 0 -- -- 52
2020-06-12 11:00:00 10.1 12 Oeste 37 Oeste 0 -- -- 58
2020-06-12 10:00:00 9.9 5 Sudeste 43 Sudoeste 0 -- -- 57
2020-06-12 09:00:00 8 15 Oeste 40 Sudoeste 0 -- -- 64
2020-06-12 08:00:00 6.7 22 Oeste 44 Oeste 0 -- -- 69
2020-06-12 07:00:00 6.8 21 Oeste 43 Oeste 0 -- -- 72
2020-06-12 06:00:00 7.3 22 Oeste 46 Oeste 0 -- -- 69
2020-06-12 05:00:00 8 17 Oeste 40 Oeste 0 -- -- 75
2020-06-12 04:00:00 8.8 12 Oeste 36 Oeste 0 -- -- 77
2020-06-12 03:00:00 9.9 7 Oeste 33 Oeste 0.2 -- -- 83
2020-06-12 02:00:00 11.6 10 Sudoeste 27 Oeste 0 -- -- 67
2020-06-12 01:00:00 12.4 18 Oeste 38 Oeste 0 -- -- 63
2020-06-12 00:00:00 13.3 10 Sudoeste 32 Sudoeste 0 -- -- 64
2020-06-11 23:00:00 14 12 Sudoeste 31 Sudoeste 0 -- -- 57
2020-06-11 22:00:00 14.8 7 Sudoeste 30 Sudoeste 0 -- -- 54
2020-06-11 21:00:00 15.3 11 Sudoeste 36 Sudoeste 0 -- -- 53
2020-06-11 20:00:00 15.8 17 Sudoeste 34 Sudoeste 0 -- -- 52
2020-06-11 19:00:00 16.9 10 Sudoeste 35 Oeste 0 -- -- 47
2020-06-11 18:00:00 18.2 13 Sudoeste 53 Oeste 0 -- -- 38
2020-06-11 17:00:00 18.8 19 Oeste 48 Sudoeste 0 -- -- 35
2020-06-11 16:00:00 18.6 18 Sudoeste 49 Sudoeste 0 -- -- 35
2020-06-11 15:00:00 17.5 16 Sudoeste 49 Sudoeste 0 -- -- 41
2020-06-11 14:00:00 17.7 15 Sudoeste 41 Oeste 0 -- -- 42
2020-06-11 13:00:00 16.4 14 Sudoeste 41 Sudoeste 0 -- -- 45
2020-06-11 12:00:00 15 17 Sudoeste 48 Sudoeste 0 -- -- 42
2020-06-11 11:00:00 14 19 Sudoeste 54 Oeste 0 -- -- 46
2020-06-11 10:00:00 14.2 10 Sur 31 Oeste 0 -- -- 52
2020-06-11 09:00:00 11.4 13 Sudoeste 28 Sudoeste 0 -- -- 62
2020-06-11 08:00:00 11.6 17 Sudoeste 35 Oeste 0 -- -- 61
2020-06-11 07:00:00 10.3 8 Sudoeste 25 Oeste 0 -- -- 68
2020-06-11 06:00:00 9.8 4 Sur 18 Sudeste 0 -- -- 78
2020-06-11 05:00:00 11.5 10 Sur 26 Sur 0 -- -- 69
2020-06-11 04:00:00 11.6 10 Sur 21 Sur 0 -- -- 70
2020-06-11 03:00:00 10.5 13 Sudeste 21 Sur 0 -- -- 81
2020-06-11 02:00:00 13.4 9 Sur 13 Sur 0 -- -- 52
2020-06-11 01:00:00 12.5 6 Sur 11 Sur 0 -- -- 54
2020-06-11 00:00:00 12.5 3 Sudoeste 6 Oeste 0 -- -- 56